DLH8WY EDDL-EDDF
Flight info
| Callsign | DLH8WY |
|---|---|
| Flight time | 0h 25m |
| Altitude | 23000 |
| Route | COL4H COL T911 ROLIS ROLIS5A |
| Aircraft | A319/M-SDE3FGHIRWY/LB1 |
Departure
| Time | 2026-05-05 08:31 |
|---|---|
| Airport | Düsseldorf Airport (EDDL) |
Arrival
| Time | 2026-05-05 08:57 |
|---|---|
| Airport | Frankfurt Main Airport (EDDF) |
| Time | Latitude | Longitude | Altitude | Speed | Heading |
|---|---|---|---|---|---|
| 2026-05-05 08:10 | 51.28156 | 6.76720 | 125 ft | 0 kts | 277° |
| 2026-05-05 08:23 | 51.28153 | 6.76752 | 124 ft | 4 kts | 289° |
| 2026-05-05 08:24 | 51.28141 | 6.76790 | 125 ft | 4 kts | 312° |
| 2026-05-05 08:24 | 51.28121 | 6.76813 | 125 ft | 4 kts | 351° |
| 2026-05-05 08:24 | 51.28107 | 6.76814 | 123 ft | 0 kts | 17° |
| 2026-05-05 08:24 | 51.28107 | 6.76813 | 123 ft | 0 kts | 17° |
| 2026-05-05 08:26 | 51.28110 | 6.76815 | 123 ft | 2 kts | 17° |
| 2026-05-05 08:27 | 51.28140 | 6.76827 | 126 ft | 8 kts | 11° |
| 2026-05-05 08:27 | 51.28212 | 6.76846 | 128 ft | 13 kts | 7° |
| 2026-05-05 08:27 | 51.28316 | 6.76863 | 127 ft | 16 kts | 3° |
| 2026-05-05 08:27 | 51.28418 | 6.76814 | 128 ft | 16 kts | 324° |
| 2026-05-05 08:28 | 51.28511 | 6.76824 | 131 ft | 15 kts | 50° |
| 2026-05-05 08:28 | 51.28579 | 6.76966 | 132 ft | 18 kts | 52° |
| 2026-05-05 08:28 | 51.28658 | 6.77127 | 133 ft | 19 kts | 52° |
| 2026-05-05 08:28 | 51.28744 | 6.77306 | 131 ft | 21 kts | 53° |
| 2026-05-05 08:29 | 51.28835 | 6.77501 | 129 ft | 23 kts | 52° |
| 2026-05-05 08:29 | 51.28931 | 6.77701 | 132 ft | 23 kts | 53° |
| 2026-05-05 08:29 | 51.29026 | 6.77902 | 134 ft | 22 kts | 53° |
| 2026-05-05 08:30 | 51.29169 | 6.78192 | 135 ft | 13 kts | 41° |
| 2026-05-05 08:30 | 51.29254 | 6.78192 | 135 ft | 14 kts | 330° |
| 2026-05-05 08:30 | 51.29301 | 6.78052 | 135 ft | 17 kts | 269° |
| 2026-05-05 08:30 | 51.29240 | 6.77884 | 134 ft | 21 kts | 233° |
| 2026-05-05 08:31 | 51.29008 | 6.77395 | 126 ft | 96 kts | 232° |
| 2026-05-05 08:31 | 51.28465 | 6.76253 | 154 ft | 156 kts | 234° |
| 2026-05-05 08:31 | 51.27785 | 6.74805 | 686 ft | 169 kts | 234° |
| 2026-05-05 08:31 | 51.27058 | 6.73240 | 1315 ft | 181 kts | 233° |
| 2026-05-05 08:32 | 51.26280 | 6.71546 | 1883 ft | 199 kts | 234° |
| 2026-05-05 08:32 | 51.25396 | 6.69683 | 2479 ft | 219 kts | 225° |
| 2026-05-05 08:32 | 51.24018 | 6.68697 | 3292 ft | 227 kts | 180° |
| 2026-05-05 08:32 | 51.22518 | 6.69463 | 4220 ft | 234 kts | 148° |
| 2026-05-05 08:33 | 51.21224 | 6.71158 | 4972 ft | 252 kts | 131° |
| 2026-05-05 08:33 | 51.20389 | 6.73713 | 5655 ft | 272 kts | 104° |
| 2026-05-05 08:33 | 51.20106 | 6.76686 | 6774 ft | 269 kts | 99° |
| 2026-05-05 08:33 | 51.19784 | 6.79604 | 7915 ft | 266 kts | 106° |
| 2026-05-05 08:34 | 51.18885 | 6.82133 | 8929 ft | 267 kts | 136° |
| 2026-05-05 08:34 | 51.17433 | 6.84105 | 9628 ft | 283 kts | 142° |
| 2026-05-05 08:34 | 51.15862 | 6.86069 | 10307 ft | 296 kts | 142° |
| 2026-05-05 08:34 | 51.14173 | 6.88173 | 10676 ft | 320 kts | 142° |
| 2026-05-05 08:35 | 51.12387 | 6.90451 | 11235 ft | 335 kts | 142° |
| 2026-05-05 08:35 | 51.10574 | 6.92832 | 12037 ft | 341 kts | 141° |
| 2026-05-05 08:35 | 51.08747 | 6.95280 | 12881 ft | 346 kts | 141° |
| 2026-05-05 08:35 | 51.06903 | 6.97777 | 13715 ft | 351 kts | 141° |
| 2026-05-05 08:36 | 51.05042 | 7.00315 | 14420 ft | 355 kts | 141° |
| 2026-05-05 08:36 | 51.03159 | 7.02891 | 14762 ft | 358 kts | 141° |
| 2026-05-05 08:36 | 51.01269 | 7.05471 | 14868 ft | 358 kts | 141° |
| 2026-05-05 08:36 | 50.99375 | 7.08051 | 14890 ft | 358 kts | 141° |
| 2026-05-05 08:37 | 50.97486 | 7.10621 | 14890 ft | 359 kts | 141° |
| 2026-05-05 08:37 | 50.95584 | 7.13194 | 14892 ft | 359 kts | 141° |
| 2026-05-05 08:37 | 50.93678 | 7.15763 | 14893 ft | 359 kts | 141° |
| 2026-05-05 08:37 | 50.91770 | 7.18325 | 14892 ft | 359 kts | 142° |
| 2026-05-05 08:38 | 50.89865 | 7.20883 | 14894 ft | 359 kts | 141° |
| 2026-05-05 08:38 | 50.87958 | 7.23448 | 14892 ft | 359 kts | 141° |
| 2026-05-05 08:38 | 50.86053 | 7.26008 | 14891 ft | 359 kts | 142° |
| 2026-05-05 08:38 | 50.84147 | 7.28565 | 14895 ft | 359 kts | 142° |
| 2026-05-05 08:39 | 50.82240 | 7.31124 | 14889 ft | 359 kts | 142° |
| 2026-05-05 08:39 | 50.80448 | 7.33881 | 14894 ft | 362 kts | 129° |
| 2026-05-05 08:39 | 50.79101 | 7.37253 | 14897 ft | 364 kts | 122° |
| 2026-05-05 08:39 | 50.77817 | 7.40695 | 14894 ft | 364 kts | 122° |
| 2026-05-05 08:40 | 50.76537 | 7.44143 | 14883 ft | 364 kts | 122° |
| 2026-05-05 08:40 | 50.75257 | 7.47587 | 14888 ft | 364 kts | 122° |
| 2026-05-05 08:40 | 50.73977 | 7.51029 | 14869 ft | 363 kts | 122° |
| 2026-05-05 08:40 | 50.72695 | 7.54464 | 14882 ft | 363 kts | 123° |
| 2026-05-05 08:41 | 50.71409 | 7.57897 | 14887 ft | 363 kts | 123° |
| 2026-05-05 08:41 | 50.70120 | 7.61322 | 14891 ft | 363 kts | 123° |
| 2026-05-05 08:41 | 50.68830 | 7.64744 | 14892 ft | 363 kts | 123° |
| 2026-05-05 08:41 | 50.67537 | 7.68167 | 14899 ft | 363 kts | 123° |
| 2026-05-05 08:42 | 50.66247 | 7.71588 | 14896 ft | 363 kts | 123° |
| 2026-05-05 08:42 | 50.64956 | 7.75007 | 14899 ft | 363 kts | 123° |
| 2026-05-05 08:42 | 50.63662 | 7.78430 | 14902 ft | 363 kts | 123° |
| 2026-05-05 08:42 | 50.62368 | 7.81846 | 14879 ft | 363 kts | 123° |
| 2026-05-05 08:43 | 50.61090 | 7.85216 | 14869 ft | 363 kts | 123° |
| 2026-05-05 08:43 | 50.59779 | 7.88672 | 14878 ft | 363 kts | 123° |
| 2026-05-05 08:43 | 50.58484 | 7.92082 | 14880 ft | 363 kts | 123° |
| 2026-05-05 08:43 | 50.57190 | 7.95484 | 14875 ft | 362 kts | 123° |
| 2026-05-05 08:44 | 50.55893 | 7.98889 | 14879 ft | 363 kts | 123° |
| 2026-05-05 08:44 | 50.54598 | 8.02287 | 14876 ft | 362 kts | 123° |
| 2026-05-05 08:44 | 50.53300 | 8.05681 | 14875 ft | 362 kts | 123° |
| 2026-05-05 08:44 | 50.52440 | 8.07931 | 14878 ft | 362 kts | 123° |
| 2026-05-05 08:45 | 50.51142 | 8.11321 | 14879 ft | 362 kts | 123° |
| 2026-05-05 08:45 | 50.49843 | 8.14712 | 14879 ft | 362 kts | 123° |
| 2026-05-05 08:45 | 50.48121 | 8.19201 | 14878 ft | 362 kts | 123° |
| 2026-05-05 08:45 | 50.46882 | 8.22645 | 14878 ft | 363 kts | 120° |
| 2026-05-05 08:46 | 50.45748 | 8.26196 | 14883 ft | 364 kts | 118° |
| 2026-05-05 08:46 | 50.45006 | 8.28613 | 14879 ft | 364 kts | 118° |
| 2026-05-05 08:46 | 50.43926 | 8.32205 | 14878 ft | 364 kts | 117° |
| 2026-05-05 08:46 | 50.42856 | 8.35795 | 14653 ft | 362 kts | 117° |
| 2026-05-05 08:47 | 50.41793 | 8.39346 | 14318 ft | 357 kts | 118° |
| 2026-05-05 08:47 | 50.40733 | 8.42848 | 13818 ft | 355 kts | 118° |
| 2026-05-05 08:47 | 50.39683 | 8.46286 | 13278 ft | 353 kts | 118° |
| 2026-05-05 08:47 | 50.38623 | 8.49740 | 12754 ft | 350 kts | 118° |
| 2026-05-05 08:48 | 50.37559 | 8.53202 | 12241 ft | 347 kts | 118° |
| 2026-05-05 08:48 | 50.36529 | 8.56547 | 11719 ft | 344 kts | 118° |
| 2026-05-05 08:48 | 50.35492 | 8.59905 | 11200 ft | 341 kts | 117° |
| 2026-05-05 08:48 | 50.34462 | 8.63231 | 10674 ft | 339 kts | 117° |
| 2026-05-05 08:49 | 50.33441 | 8.66525 | 10340 ft | 330 kts | 117° |
| 2026-05-05 08:49 | 50.32461 | 8.69693 | 10218 ft | 316 kts | 117° |
| 2026-05-05 08:49 | 50.31522 | 8.72724 | 10100 ft | 304 kts | 118° |
| 2026-05-05 08:49 | 50.30613 | 8.75650 | 9867 ft | 296 kts | 117° |
| 2026-05-05 08:50 | 50.29564 | 8.78382 | 9425 ft | 293 kts | 133° |
| 2026-05-05 08:50 | 50.27978 | 8.80344 | 8900 ft | 291 kts | 155° |
| 2026-05-05 08:50 | 50.26055 | 8.81270 | 8387 ft | 290 kts | 170° |
| 2026-05-05 08:50 | 50.24071 | 8.81875 | 7872 ft | 290 kts | 170° |
| 2026-05-05 08:51 | 50.22111 | 8.82468 | 7295 ft | 284 kts | 170° |
| 2026-05-05 08:51 | 50.20193 | 8.83050 | 6696 ft | 278 kts | 170° |
| 2026-05-05 08:51 | 50.18306 | 8.83624 | 6078 ft | 274 kts | 170° |
| 2026-05-05 08:51 | 50.16450 | 8.84190 | 5435 ft | 270 kts | 170° |
| 2026-05-05 08:52 | 50.14616 | 8.84751 | 4774 ft | 268 kts | 169° |
| 2026-05-05 08:52 | 50.12793 | 8.85305 | 4181 ft | 263 kts | 170° |
| 2026-05-05 08:52 | 50.11051 | 8.85209 | 3931 ft | 247 kts | 200° |
| 2026-05-05 08:52 | 50.09783 | 8.83606 | 3666 ft | 232 kts | 240° |
| 2026-05-05 08:53 | 50.09298 | 8.81296 | 3408 ft | 220 kts | 254° |
| 2026-05-05 08:53 | 50.08838 | 8.79056 | 3122 ft | 213 kts | 250° |
| 2026-05-05 08:53 | 50.08350 | 8.76972 | 2881 ft | 196 kts | 250° |
| 2026-05-05 08:53 | 50.07896 | 8.75055 | 2593 ft | 182 kts | 250° |
| 2026-05-05 08:54 | 50.07478 | 8.73294 | 2377 ft | 163 kts | 250° |
| 2026-05-05 08:54 | 50.07108 | 8.71731 | 2159 ft | 145 kts | 250° |
| 2026-05-05 08:54 | 50.06769 | 8.70299 | 1973 ft | 140 kts | 251° |
| 2026-05-05 08:54 | 50.06495 | 8.68808 | 1818 ft | 146 kts | 262° |
| 2026-05-05 08:55 | 50.06421 | 8.67257 | 1664 ft | 146 kts | 269° |
| 2026-05-05 08:55 | 50.06228 | 8.65706 | 1440 ft | 145 kts | 248° |
| 2026-05-05 08:55 | 50.05824 | 8.64301 | 1232 ft | 141 kts | 250° |
| 2026-05-05 08:55 | 50.05483 | 8.62872 | 989 ft | 139 kts | 252° |
| 2026-05-05 08:56 | 50.05165 | 8.61477 | 815 ft | 135 kts | 252° |
| 2026-05-05 08:56 | 50.04843 | 8.60104 | 634 ft | 136 kts | 251° |
| 2026-05-05 08:56 | 50.04515 | 8.58729 | 438 ft | 137 kts | 252° |
| 2026-05-05 08:56 | 50.04205 | 8.57410 | 367 ft | 111 kts | 251° |
| 2026-05-05 08:57 | 50.04044 | 8.56723 | 359 ft | 31 kts | 250° |
| 2026-05-05 08:57 | 50.03991 | 8.56393 | 353 ft | 26 kts | 280° |
| 2026-05-05 08:57 | 50.04013 | 8.56191 | 355 ft | 0 kts | 281° |
| 2026-05-05 08:57 | 50.04014 | 8.56186 | 354 ft | 0 kts | 281° |
| 2026-05-05 08:58 | 50.04016 | 8.56176 | 352 ft | 3 kts | 284° |
| 2026-05-05 08:58 | 50.04043 | 8.56143 | 354 ft | 8 kts | 336° |
| 2026-05-05 08:58 | 50.04099 | 8.56170 | 354 ft | 11 kts | 59° |
| 2026-05-05 08:58 | 50.04133 | 8.56303 | 354 ft | 15 kts | 69° |
| 2026-05-05 08:59 | 50.04170 | 8.56462 | 358 ft | 16 kts | 70° |
| 2026-05-05 08:59 | 50.04212 | 8.56626 | 361 ft | 16 kts | 67° |
| 2026-05-05 08:59 | 50.04260 | 8.56785 | 361 ft | 16 kts | 45° |
| 2026-05-05 08:59 | 50.04369 | 8.56837 | 362 ft | 17 kts | 14° |
| 2026-05-05 09:00 | 50.04493 | 8.56869 | 362 ft | 19 kts | 10° |
| 2026-05-05 09:00 | 50.04630 | 8.56923 | 356 ft | 20 kts | 17° |
| 2026-05-05 09:00 | 50.04730 | 8.56989 | 356 ft | 12 kts | 25° |
| 2026-05-05 09:00 | 50.04805 | 8.57044 | 356 ft | 11 kts | 24° |
| 2026-05-05 09:01 | 50.04864 | 8.57082 | 356 ft | 5 kts | 22° |
| 2026-05-05 09:01 | 50.04888 | 8.57110 | 357 ft | 5 kts | 57° |
| 2026-05-05 09:01 | 50.04890 | 8.57136 | 359 ft | 0 kts | 121° |
| 2026-05-05 09:01 | 50.04890 | 8.57139 | 359 ft | 1 kts | 112° |
| 2026-05-05 09:02 | 50.04881 | 8.57152 | 359 ft | 0 kts | 147° |